Calicut Airport
VOCL : now visible

Airfield :











YOU CAN JOIN US ON...

 
LOGIN :

Register | Disclaimer

   EN    FR    IT 

 









Legend :    VFR   Marginal VFR   IFR   Intensive IFR   Very Intensive IFR
Visi :
Ceiling :
>= 8 km
>= 3000ft
5 to 8 km
1000 to 3000 ft
1500m to 5 km
500 to 1000 ft
800 to 1500m
200 to 500 ft
< 800m
< 200 ft
Symbols :   Thunderstorms  Fog  Heavy snow  Heavy precipitations  Wind > 20 kt






- Airport Elevation : 342 ft
- IATA code : CCJ


VOCL - Calicut

CURRENT METAR :
  • 250600Z 28004KT 5000 BR SCT012 BKN080 25/24 Q1006 NOSIG

EXPIRED METARs :
  • 250530Z 27005KT 5000 BR SCT012 BKN080 25/24 Q1007 NOSIG
  • 250500Z 31004KT 3000 DZ FEW008 SCT012 FEW025CB BKN080 24/24 Q1007 TEMPO 5000 -RA BR
  • 250430Z 01003KT 3000 BR FEW004 SCT012 FEW025CB BKN080 24/24 Q1007 NOSIG
  • 250400Z 03003KT 3000 -RA FEW008 SCT012 FEW025CB BKN080 24/24 Q1007 NOSIG
  • 250330Z 06003KT 3000 -RA FEW008 SCT012 FEW025CB BKN080 24/24 Q1006 NOSIG
  • 250230Z 18004KT 2000 BR FEW008 SCT012 FEW025CB BKN080 23/23 Q1006 BECMG 3000 BR
  • 250200Z 05002KT 3000 BR FEW006 SCT012 FEW025CB BKN080 23/23 Q1006 NOSIG
  • 250130Z 05002KT 3000 BR FEW008 SCT012 FEW025CB BKN080 23/23 Q1006 BECMG 5000 -RA BR

TAF TAF VOCL
Valid from the 25 at 06:00 until the 26 at 12:00 UTC


250500Z 2506/2612 01005KT 3000 BR FEW004 SCT012 FEW025CB BKN080
TEMPO 2508/2512 27010KT 2000 TSRA RA FEW006 SCT012 FEW025CB OVC080
BECMG 2514/2516 20005KT 3000 RA BR SCT012 BKN080
TEMPO 2518/2522 VRB03KT 2000 TSRA RA FEW006 SCT012 FEW025CB OVC080
BECMG 2603/2605 09010KT 3000 RA BR SCT012 BKN080
TEMPO 2608/2612 27010KT 2000 TSRA RA SCT006 SCT012 FEW025CB BKN080
VOMF FIR / Asia



MET'MAP, your aeronautical weather chart ! - Copyright ORBIFLY December 2007 - Disclaimer

ORBIFLY MET'MAP TEAM :

Programming & Development : Alexandra Zaïnal
Original concept : Baudouin d'Aumeries
Technical & hardware support : Manuel Goepfert
Assistance : Marc-Olivier Méhu




SOURCES & CREDITS :

   NOAA       Earth
Advisory